sensor_id;sensor_type;location;lat;lon;timestamp;P1;durP1;ratioP1;P2;durP2;ratioP2
49800;SDS011;35698;50.232;30.540;2023-03-21T00:00:47;38.09;;;23.07;;
49800;SDS011;35698;50.232;30.540;2023-03-21T00:01:58;40.01;;;24.24;;
49800;SDS011;35698;50.232;30.540;2023-03-21T00:03:01;37.55;;;23.81;;
49800;SDS011;35698;50.232;30.540;2023-03-21T00:04:23;40.49;;;23.84;;
49800;SDS011;35698;50.232;30.540;2023-03-21T00:05:29;36.83;;;22.59;;
49800;SDS011;35698;50.232;30.540;2023-03-21T00:06:51;40.39;;;23.19;;
49800;SDS011;35698;50.232;30.540;2023-03-21T00:08:02;37.06;;;23.05;;
49800;SDS011;35698;50.232;30.540;2023-03-21T00:09:06;34.22;;;22.52;;
49800;SDS011;35698;50.232;30.540;2023-03-21T00:10:17;35.17;;;22.61;;
49800;SDS011;35698;50.232;30.540;2023-03-21T00:11:23;35.36;;;23.24;;
49800;SDS011;35698;50.232;30.540;2023-03-21T00:12:34;36.42;;;23.63;;
49800;SDS011;35698;50.232;30.540;2023-03-21T00:13:37;39.24;;;23.44;;
49800;SDS011;35698;50.232;30.540;2023-03-21T00:14:40;37.56;;;24.31;;
49800;SDS011;35698;50.232;30.540;2023-03-21T00:15:44;45.29;;;24.51;;
49800;SDS011;35698;50.232;30.540;2023-03-21T00:17:06;37.68;;;23.21;;
49800;SDS011;35698;50.232;30.540;2023-03-21T00:18:17;37.43;;;25.06;;
49800;SDS011;35698;50.232;30.540;2023-03-21T00:19:21;38.81;;;25.69;;
49800;SDS011;35698;50.232;30.540;2023-03-21T00:20:24;34.67;;;23.24;;
49800;SDS011;35698;50.232;30.540;2023-03-21T00:21:35;34.39;;;22.16;;
49800;SDS011;35698;50.232;30.540;2023-03-21T00:22:40;35.07;;;23.53;;
49800;SDS011;35698;50.232;30.540;2023-03-21T00:23:52;33.76;;;21.17;;
49800;SDS011;35698;50.232;30.540;2023-03-21T00:25:13;34.88;;;22.21;;
49800;SDS011;35698;50.232;30.540;2023-03-21T00:26:17;33.81;;;22.22;;
49800;SDS011;35698;50.232;30.540;2023-03-21T00:27:29;36.37;;;21.78;;
49800;SDS011;35698;50.232;30.540;2023-03-21T00:28:51;30.68;;;20.08;;
49800;SDS011;35698;50.232;30.540;2023-03-21T00:30:03;30.98;;;20.44;;
49800;SDS011;35698;50.232;30.540;2023-03-21T00:31:25;31.33;;;20.67;;
49800;SDS011;35698;50.232;30.540;2023-03-21T00:32:37;30.27;;;21.03;;
49800;SDS011;35698;50.232;30.540;2023-03-21T00:33:59;33.91;;;20.99;;
49800;SDS011;35698;50.232;30.540;2023-03-21T00:35:02;32.90;;;21.58;;
49800;SDS011;35698;50.232;30.540;2023-03-21T00:36:14;29.72;;;20.43;;
49800;SDS011;35698;50.232;30.540;2023-03-21T00:37:36;32.37;;;21.11;;
49800;SDS011;35698;50.232;30.540;2023-03-21T00:38:39;32.40;;;20.96;;
49800;SDS011;35698;50.232;30.540;2023-03-21T00:39:46;32.03;;;21.81;;
49800;SDS011;35698;50.232;30.540;2023-03-21T00:40:58;33.66;;;21.74;;
49800;SDS011;35698;50.232;30.540;2023-03-21T00:42:19;31.21;;;20.13;;
49800;SDS011;35698;50.232;30.540;2023-03-21T00:43:23;32.22;;;21.91;;
49800;SDS011;35698;50.232;30.540;2023-03-21T00:44:26;32.67;;;21.70;;
49800;SDS011;35698;50.232;30.540;2023-03-21T00:45:29;32.56;;;21.02;;
49800;SDS011;35698;50.232;30.540;2023-03-21T00:46:41;32.22;;;21.34;;
49800;SDS011;35698;50.232;30.540;2023-03-21T00:48:03;34.43;;;21.91;;
49800;SDS011;35698;50.232;30.540;2023-03-21T00:49:07;34.22;;;21.21;;
49800;SDS011;35698;50.232;30.540;2023-03-21T00:50:18;29.43;;;20.40;;
49800;SDS011;35698;50.232;30.540;2023-03-21T00:51:40;31.62;;;21.14;;
49800;SDS011;35698;50.232;30.540;2023-03-21T00:52:51;31.41;;;21.21;;
49800;SDS011;35698;50.232;30.540;2023-03-21T00:53:55;33.26;;;20.85;;
49800;SDS011;35698;50.232;30.540;2023-03-21T00:55:00;32.84;;;21.95;;
49800;SDS011;35698;50.232;30.540;2023-03-21T00:56:03;33.67;;;21.94;;
49800;SDS011;35698;50.232;30.540;2023-03-21T00:57:15;32.08;;;21.13;;
49800;SDS011;35698;50.232;30.540;2023-03-21T00:58:18;35.79;;;20.58;;
49800;SDS011;35698;50.232;30.540;2023-03-21T00:59:29;39.44;;;23.69;;
49800;SDS011;35698;50.232;30.540;2023-03-21T01:00:33;39.59;;;25.03;;
49800;SDS011;35698;50.232;30.540;2023-03-21T01:01:45;45.96;;;26.06;;
49800;SDS011;35698;50.232;30.540;2023-03-21T01:02:48;45.14;;;26.91;;
49800;SDS011;35698;50.232;30.540;2023-03-21T01:03:54;43.36;;;26.19;;
49800;SDS011;35698;50.232;30.540;2023-03-21T01:05:05;48.02;;;28.72;;
49800;SDS011;35698;50.232;30.540;2023-03-21T01:06:09;49.70;;;30.19;;
49800;SDS011;35698;50.232;30.540;2023-03-21T01:07:21;51.88;;;28.89;;
49800;SDS011;35698;50.232;30.540;2023-03-21T01:08:25;48.79;;;29.16;;
49800;SDS011;35698;50.232;30.540;2023-03-21T01:09:31;47.87;;;28.93;;
49800;SDS011;35698;50.232;30.540;2023-03-21T01:10:36;48.51;;;30.86;;
49800;SDS011;35698;50.232;30.540;2023-03-21T01:11:51;52.03;;;30.08;;
49800;SDS011;35698;50.232;30.540;2023-03-21T01:12:55;47.21;;;29.33;;
49800;SDS011;35698;50.232;30.540;2023-03-21T01:14:06;48.57;;;29.96;;
49800;SDS011;35698;50.232;30.540;2023-03-21T01:15:12;48.33;;;29.20;;
49800;SDS011;35698;50.232;30.540;2023-03-21T01:16:33;44.88;;;27.14;;
49800;SDS011;35698;50.232;30.540;2023-03-21T01:17:44;43.38;;;26.58;;
49800;SDS011;35698;50.232;30.540;2023-03-21T01:18:48;36.73;;;23.36;;
49800;SDS011;35698;50.232;30.540;2023-03-21T01:20:10;43.04;;;25.24;;
49800;SDS011;35698;50.232;30.540;2023-03-21T01:21:23;52.19;;;29.77;;
49800;SDS011;35698;50.232;30.540;2023-03-21T01:22:28;59.68;;;32.82;;
49800;SDS011;35698;50.232;30.540;2023-03-21T01:23:51;55.08;;;31.09;;
49800;SDS011;35698;50.232;30.540;2023-03-21T01:25:13;50.17;;;29.24;;
49800;SDS011;35698;50.232;30.540;2023-03-21T01:26:25;48.54;;;30.22;;
49800;SDS011;35698;50.232;30.540;2023-03-21T01:27:28;50.55;;;30.37;;
49800;SDS011;35698;50.232;30.540;2023-03-21T01:28:50;53.33;;;30.73;;
49800;SDS011;35698;50.232;30.540;2023-03-21T01:30:11;52.61;;;30.57;;
49800;SDS011;35698;50.232;30.540;2023-03-21T01:31:23;52.01;;;30.37;;
49800;SDS011;35698;50.232;30.540;2023-03-21T01:32:26;57.01;;;33.38;;
49800;SDS011;35698;50.232;30.540;2023-03-21T01:33:47;58.81;;;33.70;;
49800;SDS011;35698;50.232;30.540;2023-03-21T01:35:09;53.09;;;31.57;;
49800;SDS011;35698;50.232;30.540;2023-03-21T01:36:21;58.96;;;33.42;;
49800;SDS011;35698;50.232;30.540;2023-03-21T01:37:28;68.66;;;39.22;;
49800;SDS011;35698;50.232;30.540;2023-03-21T01:38:50;87.33;;;47.49;;
49800;SDS011;35698;50.232;30.540;2023-03-21T01:40:20;83.12;;;47.21;;
49800;SDS011;35698;50.232;30.540;2023-03-21T01:41:35;92.42;;;48.71;;
49800;SDS011;35698;50.232;30.540;2023-03-21T01:42:48;88.27;;;50.68;;
49800;SDS011;35698;50.232;30.540;2023-03-21T01:44:28;84.98;;;47.12;;
49800;SDS011;35698;50.232;30.540;2023-03-21T01:47:32;88.68;;;46.11;;
49800;SDS011;35698;50.232;30.540;2023-03-21T01:48:44;77.11;;;43.73;;
49800;SDS011;35698;50.232;30.540;2023-03-21T01:50:06;80.96;;;44.30;;
49800;SDS011;35698;50.232;30.540;2023-03-21T01:51:17;79.35;;;45.21;;
49800;SDS011;35698;50.232;30.540;2023-03-21T01:52:39;72.81;;;42.07;;
49800;SDS011;35698;50.232;30.540;2023-03-21T01:53:43;74.06;;;41.12;;
49800;SDS011;35698;50.232;30.540;2023-03-21T01:55:08;74.74;;;40.98;;
49800;SDS011;35698;50.232;30.540;2023-03-21T01:56:27;68.96;;;38.91;;
49800;SDS011;35698;50.232;30.540;2023-03-21T01:57:48;68.15;;;37.99;;
49800;SDS011;35698;50.232;30.540;2023-03-21T01:59:01;73.36;;;40.54;;
49800;SDS011;35698;50.232;30.540;2023-03-21T02:00:17;65.98;;;37.28;;
49800;SDS011;35698;50.232;30.540;2023-03-21T02:01:42;73.35;;;41.08;;
49800;SDS011;35698;50.232;30.540;2023-03-21T02:02:55;77.94;;;44.55;;
49800;SDS011;35698;50.232;30.540;2023-03-21T02:04:18;66.24;;;39.60;;
49800;SDS011;35698;50.232;30.540;2023-03-21T02:05:31;59.82;;;34.39;;
49800;SDS011;35698;50.232;30.540;2023-03-21T02:06:58;48.19;;;29.57;;
49800;SDS011;35698;50.232;30.540;2023-03-21T02:08:33;57.09;;;33.00;;
49800;SDS011;35698;50.232;30.540;2023-03-21T02:09:40;71.54;;;40.44;;
49800;SDS011;35698;50.232;30.540;2023-03-21T02:10:47;76.62;;;40.34;;
49800;SDS011;35698;50.232;30.540;2023-03-21T02:12:00;71.99;;;42.44;;
49800;SDS011;35698;50.232;30.540;2023-03-21T02:13:04;74.75;;;42.14;;
49800;SDS011;35698;50.232;30.540;2023-03-21T02:14:08;72.18;;;39.56;;
49800;SDS011;35698;50.232;30.540;2023-03-21T02:15:16;67.47;;;38.70;;
49800;SDS011;35698;50.232;30.540;2023-03-21T02:16:40;68.09;;;37.94;;
49800;SDS011;35698;50.232;30.540;2023-03-21T02:17:58;61.48;;;36.14;;
49800;SDS011;35698;50.232;30.540;2023-03-21T02:32:40;59.38;;;31.89;;
49800;SDS011;35698;50.232;30.540;2023-03-21T02:38:08;65.08;;;34.76;;
49800;SDS011;35698;50.232;30.540;2023-03-21T02:39:34;57.42;;;33.21;;
49800;SDS011;35698;50.232;30.540;2023-03-21T02:42:22;56.43;;;32.83;;
49800;SDS011;35698;50.232;30.540;2023-03-21T02:44:00;55.12;;;33.24;;
49800;SDS011;35698;50.232;30.540;2023-03-21T02:46:54;56.84;;;32.16;;
49800;SDS011;35698;50.232;30.540;2023-03-21T02:48:12;57.35;;;32.86;;
49800;SDS011;35698;50.232;30.540;2023-03-21T02:51:15;62.26;;;33.64;;
49800;SDS011;35698;50.232;30.540;2023-03-21T02:52:29;60.79;;;33.03;;
49800;SDS011;35698;50.232;30.540;2023-03-21T02:53:38;57.82;;;34.16;;
49800;SDS011;35698;50.232;30.540;2023-03-21T02:55:03;57.58;;;32.61;;
49800;SDS011;35698;50.232;30.540;2023-03-21T02:56:17;65.77;;;37.09;;
49800;SDS011;35698;50.232;30.540;2023-03-21T02:57:21;67.65;;;39.69;;
49800;SDS011;35698;50.232;30.540;2023-03-21T02:58:42;70.62;;;40.44;;
49800;SDS011;35698;50.232;30.540;2023-03-21T02:59:47;75.82;;;43.23;;
49800;SDS011;35698;50.232;30.540;2023-03-21T03:01:00;80.92;;;43.28;;
49800;SDS011;35698;50.232;30.540;2023-03-21T03:02:04;74.99;;;43.01;;
49800;SDS011;35698;50.232;30.540;2023-03-21T03:03:26;90.63;;;48.35;;
49800;SDS011;35698;50.232;30.540;2023-03-21T03:04:31;91.38;;;50.69;;
49800;SDS011;35698;50.232;30.540;2023-03-21T03:05:36;83.32;;;46.85;;
49800;SDS011;35698;50.232;30.540;2023-03-21T03:14:27;66.49;;;34.57;;
49800;SDS011;35698;50.232;30.540;2023-03-21T03:15:49;64.24;;;35.35;;
49800;SDS011;35698;50.232;30.540;2023-03-21T03:17:14;66.60;;;36.14;;
49800;SDS011;35698;50.232;30.540;2023-03-21T03:18:40;65.68;;;36.56;;
49800;SDS011;35698;50.232;30.540;2023-03-21T03:21:54;58.82;;;32.57;;
49800;SDS011;35698;50.232;30.540;2023-03-21T03:23:27;59.98;;;33.88;;
49800;SDS011;35698;50.232;30.540;2023-03-21T03:24:57;61.17;;;32.77;;
49800;SDS011;35698;50.232;30.540;2023-03-21T03:27:50;58.69;;;32.17;;
49800;SDS011;35698;50.232;30.540;2023-03-21T03:29:16;59.16;;;32.33;;
49800;SDS011;35698;50.232;30.540;2023-03-21T03:30:23;51.97;;;31.74;;
49800;SDS011;35698;50.232;30.540;2023-03-21T03:31:38;52.17;;;30.74;;
49800;SDS011;35698;50.232;30.540;2023-03-21T03:33:01;56.30;;;31.88;;
49800;SDS011;35698;50.232;30.540;2023-03-21T03:34:12;46.26;;;28.81;;
49800;SDS011;35698;50.232;30.540;2023-03-21T03:35:27;40.17;;;24.59;;
49800;SDS011;35698;50.232;30.540;2023-03-21T03:36:50;37.18;;;23.05;;
49800;SDS011;35698;50.232;30.540;2023-03-21T03:38:04;33.96;;;21.86;;
49800;SDS011;35698;50.232;30.540;2023-03-21T03:39:10;35.78;;;22.40;;
49800;SDS011;35698;50.232;30.540;2023-03-21T03:41:46;31.91;;;21.48;;
49800;SDS011;35698;50.232;30.540;2023-03-21T03:44:18;34.36;;;22.28;;
49800;SDS011;35698;50.232;30.540;2023-03-21T03:51:47;34.66;;;21.59;;
49800;SDS011;35698;50.232;30.540;2023-03-21T03:53:05;36.10;;;21.11;;
49800;SDS011;35698;50.232;30.540;2023-03-21T03:54:40;35.97;;;21.55;;
49800;SDS011;35698;50.232;30.540;2023-03-21T03:55:52;30.06;;;20.89;;
49800;SDS011;35698;50.232;30.540;2023-03-21T03:56:58;33.67;;;20.91;;
49800;SDS011;35698;50.232;30.540;2023-03-21T03:58:01;28.75;;;20.27;;
49800;SDS011;35698;50.232;30.540;2023-03-21T03:59:23;33.51;;;20.93;;
49800;SDS011;35698;50.232;30.540;2023-03-21T04:00:35;30.03;;;19.05;;
49800;SDS011;35698;50.232;30.540;2023-03-21T04:01:40;33.15;;;20.97;;
49800;SDS011;35698;50.232;30.540;2023-03-21T04:02:43;35.24;;;20.49;;
49800;SDS011;35698;50.232;30.540;2023-03-21T04:04:05;31.30;;;20.11;;
49800;SDS011;35698;50.232;30.540;2023-03-21T04:05:19;30.41;;;20.68;;
49800;SDS011;35698;50.232;30.540;2023-03-21T04:06:22;34.88;;;22.09;;
49800;SDS011;35698;50.232;30.540;2023-03-21T04:07:33;36.22;;;19.75;;
49800;SDS011;35698;50.232;30.540;2023-03-21T04:08:37;29.40;;;19.88;;
49800;SDS011;35698;50.232;30.540;2023-03-21T04:09:40;33.09;;;21.13;;
49800;SDS011;35698;50.232;30.540;2023-03-21T04:11:02;30.73;;;20.33;;
49800;SDS011;35698;50.232;30.540;2023-03-21T04:12:13;29.90;;;20.48;;
49800;SDS011;35698;50.232;30.540;2023-03-21T04:13:16;33.54;;;21.64;;
49800;SDS011;35698;50.232;30.540;2023-03-21T04:14:21;39.53;;;25.77;;
49800;SDS011;35698;50.232;30.540;2023-03-21T04:15:25;33.85;;;22.86;;
49800;SDS011;35698;50.232;30.540;2023-03-21T04:16:36;30.58;;;21.02;;
49800;SDS011;35698;50.232;30.540;2023-03-21T04:17:39;33.17;;;21.89;;
49800;SDS011;35698;50.232;30.540;2023-03-21T04:18:43;33.53;;;21.06;;
49800;SDS011;35698;50.232;30.540;2023-03-21T04:19:47;34.32;;;21.05;;
49800;SDS011;35698;50.232;30.540;2023-03-21T04:21:09;29.06;;;20.67;;
49800;SDS011;35698;50.232;30.540;2023-03-21T04:22:21;31.13;;;21.16;;
49800;SDS011;35698;50.232;30.540;2023-03-21T04:23:24;30.62;;;20.16;;
49800;SDS011;35698;50.232;30.540;2023-03-21T04:24:28;31.49;;;21.12;;
49800;SDS011;35698;50.232;30.540;2023-03-21T04:27:12;36.23;;;21.22;;
49800;SDS011;35698;50.232;30.540;2023-03-21T04:28:34;32.38;;;20.54;;
49800;SDS011;35698;50.232;30.540;2023-03-21T04:29:38;29.99;;;20.32;;
49800;SDS011;35698;50.232;30.540;2023-03-21T04:30:42;33.36;;;20.77;;
49800;SDS011;35698;50.232;30.540;2023-03-21T04:31:53;31.33;;;21.18;;
49800;SDS011;35698;50.232;30.540;2023-03-21T04:32:56;32.09;;;21.56;;
49800;SDS011;35698;50.232;30.540;2023-03-21T04:34:00;28.91;;;19.82;;
49800;SDS011;35698;50.232;30.540;2023-03-21T04:35:06;32.15;;;20.38;;
49800;SDS011;35698;50.232;30.540;2023-03-21T04:36:28;32.58;;;21.23;;
49800;SDS011;35698;50.232;30.540;2023-03-21T04:37:50;35.24;;;21.01;;
49800;SDS011;35698;50.232;30.540;2023-03-21T04:39:01;34.79;;;21.33;;
49800;SDS011;35698;50.232;30.540;2023-03-21T04:40:05;32.19;;;21.62;;
49800;SDS011;35698;50.232;30.540;2023-03-21T04:41:19;34.14;;;21.19;;
49800;SDS011;35698;50.232;30.540;2023-03-21T04:42:22;32.83;;;21.14;;
49800;SDS011;35698;50.232;30.540;2023-03-21T04:43:26;33.28;;;22.27;;
49800;SDS011;35698;50.232;30.540;2023-03-21T04:44:37;32.74;;;20.05;;
49800;SDS011;35698;50.232;30.540;2023-03-21T04:45:40;32.39;;;20.38;;
49800;SDS011;35698;50.232;30.540;2023-03-21T04:46:51;37.19;;;22.96;;
49800;SDS011;35698;50.232;30.540;2023-03-21T04:47:55;45.04;;;25.91;;
49800;SDS011;35698;50.232;30.540;2023-03-21T04:48:58;42.18;;;25.22;;
49800;SDS011;35698;50.232;30.540;2023-03-21T04:50:02;44.21;;;24.81;;
49800;SDS011;35698;50.232;30.540;2023-03-21T04:51:16;43.59;;;25.23;;
49800;SDS011;35698;50.232;30.540;2023-03-21T04:52:19;42.67;;;25.59;;
49800;SDS011;35698;50.232;30.540;2023-03-21T04:53:23;46.33;;;27.09;;
49800;SDS011;35698;50.232;30.540;2023-03-21T04:54:27;47.39;;;27.93;;
49800;SDS011;35698;50.232;30.540;2023-03-21T04:55:30;54.58;;;30.08;;
49800;SDS011;35698;50.232;30.540;2023-03-21T04:56:41;57.85;;;31.86;;
49800;SDS011;35698;50.232;30.540;2023-03-21T04:57:46;54.95;;;32.55;;
49800;SDS011;35698;50.232;30.540;2023-03-21T04:58:49;51.74;;;30.95;;
49800;SDS011;35698;50.232;30.540;2023-03-21T04:59:53;51.55;;;32.20;;
49800;SDS011;35698;50.232;30.540;2023-03-21T05:01:04;52.37;;;32.72;;
49800;SDS011;35698;50.232;30.540;2023-03-21T05:02:08;62.94;;;33.46;;
49800;SDS011;35698;50.232;30.540;2023-03-21T05:03:12;60.63;;;32.30;;
49800;SDS011;35698;50.232;30.540;2023-03-21T05:04:24;82.80;;;33.14;;
49800;SDS011;35698;50.232;30.540;2023-03-21T05:05:28;51.66;;;33.04;;
49800;SDS011;35698;50.232;30.540;2023-03-21T05:06:40;53.69;;;31.46;;
49800;SDS011;35698;50.232;30.540;2023-03-21T05:07:43;52.21;;;32.59;;
49800;SDS011;35698;50.232;30.540;2023-03-21T05:08:58;50.79;;;30.46;;
49800;SDS011;35698;50.232;30.540;2023-03-21T05:10:04;166.48;;;36.71;;
49800;SDS011;35698;50.232;30.540;2023-03-21T05:11:16;100.56;;;33.91;;
49800;SDS011;35698;50.232;30.540;2023-03-21T05:12:19;77.33;;;33.21;;
49800;SDS011;35698;50.232;30.540;2023-03-21T05:13:25;88.63;;;32.03;;
49800;SDS011;35698;50.232;30.540;2023-03-21T05:14:47;54.79;;;31.02;;
49800;SDS011;35698;50.232;30.540;2023-03-21T05:15:50;57.84;;;31.67;;
49800;SDS011;35698;50.232;30.540;2023-03-21T05:17:02;82.13;;;31.46;;
49800;SDS011;35698;50.232;30.540;2023-03-21T05:18:06;55.15;;;31.34;;
49800;SDS011;35698;50.232;30.540;2023-03-21T05:19:10;52.77;;;31.21;;
49800;SDS011;35698;50.232;30.540;2023-03-21T05:20:31;44.51;;;28.90;;
49800;SDS011;35698;50.232;30.540;2023-03-21T05:21:43;47.05;;;29.33;;
49800;SDS011;35698;50.232;30.540;2023-03-21T05:22:47;50.22;;;30.44;;
49800;SDS011;35698;50.232;30.540;2023-03-21T05:23:50;48.79;;;30.48;;
49800;SDS011;35698;50.232;30.540;2023-03-21T05:25:12;56.49;;;30.72;;
49800;SDS011;35698;50.232;30.540;2023-03-21T05:26:23;50.83;;;29.76;;
49800;SDS011;35698;50.232;30.540;2023-03-21T05:27:28;48.31;;;30.81;;
49800;SDS011;35698;50.232;30.540;2023-03-21T05:28:31;49.74;;;29.94;;
49800;SDS011;35698;50.232;30.540;2023-03-21T05:29:53;57.58;;;32.66;;
49800;SDS011;35698;50.232;30.540;2023-03-21T05:31:05;53.23;;;32.38;;
49800;SDS011;35698;50.232;30.540;2023-03-21T05:32:09;59.81;;;34.49;;
49800;SDS011;35698;50.232;30.540;2023-03-21T05:33:13;50.02;;;32.76;;
49800;SDS011;35698;50.232;30.540;2023-03-21T05:34:16;58.90;;;32.31;;
49800;SDS011;35698;50.232;30.540;2023-03-21T05:35:20;53.48;;;32.55;;
49800;SDS011;35698;50.232;30.540;2023-03-21T05:36:31;45.60;;;30.88;;
49800;SDS011;35698;50.232;30.540;2023-03-21T05:37:35;45.95;;;30.94;;
49800;SDS011;35698;50.232;30.540;2023-03-21T05:38:38;47.49;;;30.68;;
49800;SDS011;35698;50.232;30.540;2023-03-21T05:39:42;45.56;;;29.57;;
49800;SDS011;35698;50.232;30.540;2023-03-21T05:40:49;45.36;;;29.22;;
49800;SDS011;35698;50.232;30.540;2023-03-21T05:42:01;42.71;;;27.49;;
49800;SDS011;35698;50.232;30.540;2023-03-21T05:43:04;42.53;;;27.36;;
49800;SDS011;35698;50.232;30.540;2023-03-21T05:44:08;43.18;;;28.42;;
49800;SDS011;35698;50.232;30.540;2023-03-21T05:45:15;42.65;;;27.11;;
49800;SDS011;35698;50.232;30.540;2023-03-21T05:46:29;42.35;;;27.07;;
49800;SDS011;35698;50.232;30.540;2023-03-21T05:47:32;43.93;;;25.97;;
49800;SDS011;35698;50.232;30.540;2023-03-21T05:48:44;43.19;;;27.53;;
49800;SDS011;35698;50.232;30.540;2023-03-21T05:49:47;40.31;;;26.64;;
49800;SDS011;35698;50.232;30.540;2023-03-21T05:50:52;40.31;;;26.10;;
49800;SDS011;35698;50.232;30.540;2023-03-21T05:52:03;48.82;;;30.43;;
49800;SDS011;35698;50.232;30.540;2023-03-21T05:53:07;39.14;;;27.08;;
49800;SDS011;35698;50.232;30.540;2023-03-21T05:54:11;39.85;;;26.99;;
49800;SDS011;35698;50.232;30.540;2023-03-21T05:56:28;39.82;;;26.19;;
49800;SDS011;35698;50.232;30.540;2023-03-21T05:57:33;41.19;;;27.19;;
49800;SDS011;35698;50.232;30.540;2023-03-21T05:58:37;41.01;;;26.12;;
49800;SDS011;35698;50.232;30.540;2023-03-21T05:59:41;36.69;;;25.49;;
49800;SDS011;35698;50.232;30.540;2023-03-21T06:00:53;40.31;;;24.82;;
49800;SDS011;35698;50.232;30.540;2023-03-21T06:01:58;37.98;;;25.31;;
49800;SDS011;35698;50.232;30.540;2023-03-21T06:03:09;37.21;;;24.87;;
49800;SDS011;35698;50.232;30.540;2023-03-21T06:04:13;37.66;;;24.03;;
49800;SDS011;35698;50.232;30.540;2023-03-21T06:06:49;42.34;;;27.79;;
49800;SDS011;35698;50.232;30.540;2023-03-21T06:07:53;41.23;;;26.31;;
49800;SDS011;35698;50.232;30.540;2023-03-21T06:09:16;37.52;;;25.54;;
49800;SDS011;35698;50.232;30.540;2023-03-21T06:10:20;42.04;;;26.93;;
49800;SDS011;35698;50.232;30.540;2023-03-21T06:11:37;40.76;;;25.51;;
49800;SDS011;35698;50.232;30.540;2023-03-21T06:12:42;39.26;;;25.65;;
49800;SDS011;35698;50.232;30.540;2023-03-21T06:14:04;39.26;;;25.13;;
49800;SDS011;35698;50.232;30.540;2023-03-21T06:15:17;40.16;;;25.01;;
49800;SDS011;35698;50.232;30.540;2023-03-21T06:16:21;39.44;;;25.61;;
49800;SDS011;35698;50.232;30.540;2023-03-21T06:17:43;37.99;;;24.89;;
49800;SDS011;35698;50.232;30.540;2023-03-21T06:18:58;39.68;;;24.93;;
49800;SDS011;35698;50.232;30.540;2023-03-21T06:20:06;39.31;;;25.14;;
49800;SDS011;35698;50.232;30.540;2023-03-21T06:21:25;36.71;;;25.02;;
49800;SDS011;35698;50.232;30.540;2023-03-21T06:22:37;41.60;;;25.21;;
49800;SDS011;35698;50.232;30.540;2023-03-21T06:23:41;38.84;;;25.61;;
49800;SDS011;35698;50.232;30.540;2023-03-21T06:25:03;39.32;;;24.33;;
49800;SDS011;35698;50.232;30.540;2023-03-21T06:26:08;38.96;;;26.74;;
49800;SDS011;35698;50.232;30.540;2023-03-21T06:27:19;37.99;;;25.98;;
49800;SDS011;35698;50.232;30.540;2023-03-21T06:28:23;37.16;;;25.18;;
49800;SDS011;35698;50.232;30.540;2023-03-21T06:29:44;36.81;;;24.48;;
49800;SDS011;35698;50.232;30.540;2023-03-21T06:30:48;38.02;;;24.41;;
49800;SDS011;35698;50.232;30.540;2023-03-21T06:32:00;42.08;;;26.27;;
49800;SDS011;35698;50.232;30.540;2023-03-21T06:33:04;41.04;;;26.61;;
49800;SDS011;35698;50.232;30.540;2023-03-21T07:00:09;36.81;;;23.30;;
49800;SDS011;35698;50.232;30.540;2023-03-21T07:01:23;34.97;;;22.26;;
49800;SDS011;35698;50.232;30.540;2023-03-21T07:02:27;37.98;;;23.69;;
49800;SDS011;35698;50.232;30.540;2023-03-21T07:03:39;41.06;;;26.67;;
49800;SDS011;35698;50.232;30.540;2023-03-21T07:04:43;38.56;;;25.26;;
49800;SDS011;35698;50.232;30.540;2023-03-21T07:05:47;39.37;;;25.96;;
49800;SDS011;35698;50.232;30.540;2023-03-21T07:06:58;36.76;;;24.70;;
49800;SDS011;35698;50.232;30.540;2023-03-21T07:08:02;39.64;;;25.46;;
49800;SDS011;35698;50.232;30.540;2023-03-21T07:09:14;39.00;;;26.01;;
49800;SDS011;35698;50.232;30.540;2023-03-21T07:10:19;40.88;;;25.93;;
49800;SDS011;35698;50.232;30.540;2023-03-21T07:11:30;40.53;;;24.89;;
49800;SDS011;35698;50.232;30.540;2023-03-21T07:12:34;40.22;;;24.94;;
49800;SDS011;35698;50.232;30.540;2023-03-21T07:13:45;38.38;;;25.48;;
49800;SDS011;35698;50.232;30.540;2023-03-21T07:14:49;38.13;;;25.34;;
49800;SDS011;35698;50.232;30.540;2023-03-21T07:16:00;41.22;;;26.37;;
49800;SDS011;35698;50.232;30.540;2023-03-21T07:17:04;37.83;;;26.47;;
49800;SDS011;35698;50.232;30.540;2023-03-21T07:18:15;37.12;;;25.77;;
49800;SDS011;35698;50.232;30.540;2023-03-21T07:19:18;37.22;;;23.86;;
49800;SDS011;35698;50.232;30.540;2023-03-21T07:20:25;36.63;;;24.87;;
49800;SDS011;35698;50.232;30.540;2023-03-21T07:21:36;37.27;;;25.71;;
49800;SDS011;35698;50.232;30.540;2023-03-21T07:22:40;40.15;;;25.45;;
49800;SDS011;35698;50.232;30.540;2023-03-21T07:23:52;36.85;;;25.62;;
49800;SDS011;35698;50.232;30.540;2023-03-21T07:24:55;41.68;;;26.36;;
49800;SDS011;35698;50.232;30.540;2023-03-21T07:26:07;36.48;;;24.89;;
49800;SDS011;35698;50.232;30.540;2023-03-21T07:27:11;43.19;;;26.58;;
49800;SDS011;35698;50.232;30.540;2023-03-21T07:28:22;39.79;;;26.93;;
49800;SDS011;35698;50.232;30.540;2023-03-21T07:29:26;36.86;;;24.56;;
49800;SDS011;35698;50.232;30.540;2023-03-21T07:30:36;33.77;;;24.32;;
49800;SDS011;35698;50.232;30.540;2023-03-21T07:31:40;36.76;;;24.71;;
49800;SDS011;35698;50.232;30.540;2023-03-21T07:33:02;67.02;;;27.80;;
49800;SDS011;35698;50.232;30.540;2023-03-21T07:34:14;35.22;;;24.64;;
49800;SDS011;35698;50.232;30.540;2023-03-21T07:35:18;37.25;;;26.12;;
49800;SDS011;35698;50.232;30.540;2023-03-21T07:36:39;39.37;;;24.43;;
49800;SDS011;35698;50.232;30.540;2023-03-21T07:37:50;35.63;;;24.27;;
49800;SDS011;35698;50.232;30.540;2023-03-21T07:38:54;36.57;;;25.72;;
49800;SDS011;35698;50.232;30.540;2023-03-21T07:40:17;39.28;;;25.83;;
49800;SDS011;35698;50.232;30.540;2023-03-21T07:41:31;86.78;;;27.25;;
49800;SDS011;35698;50.232;30.540;2023-03-21T07:42:35;40.47;;;24.82;;
49800;SDS011;35698;50.232;30.540;2023-03-21T07:43:58;37.39;;;24.48;;
49800;SDS011;35698;50.232;30.540;2023-03-21T07:45:11;38.67;;;26.06;;
49800;SDS011;35698;50.232;30.540;2023-03-21T07:46:15;35.73;;;24.04;;
49800;SDS011;35698;50.232;30.540;2023-03-21T07:47:37;35.77;;;25.10;;
49800;SDS011;35698;50.232;30.540;2023-03-21T07:48:48;38.78;;;25.53;;
49800;SDS011;35698;50.232;30.540;2023-03-21T07:49:51;36.64;;;25.65;;
49800;SDS011;35698;50.232;30.540;2023-03-21T07:51:13;37.47;;;26.21;;
49800;SDS011;35698;50.232;30.540;2023-03-21T07:52:25;39.62;;;25.09;;
49800;SDS011;35698;50.232;30.540;2023-03-21T07:53:29;39.72;;;27.64;;
49800;SDS011;35698;50.232;30.540;2023-03-21T07:54:53;44.88;;;29.47;;
49800;SDS011;35698;50.232;30.540;2023-03-21T07:56:07;46.83;;;30.11;;
49800;SDS011;35698;50.232;30.540;2023-03-21T07:57:11;46.49;;;31.04;;
49800;SDS011;35698;50.232;30.540;2023-03-21T07:58:33;43.59;;;31.24;;
49800;SDS011;35698;50.232;30.540;2023-03-21T07:59:39;46.66;;;30.72;;
49800;SDS011;35698;50.232;30.540;2023-03-21T08:00:50;47.98;;;31.04;;
49800;SDS011;35698;50.232;30.540;2023-03-21T08:01:55;42.82;;;30.00;;
49800;SDS011;35698;50.232;30.540;2023-03-21T08:03:06;46.16;;;30.63;;
49800;SDS011;35698;50.232;30.540;2023-03-21T08:04:17;44.79;;;30.87;;